RYR8230 LEPA-LEAL
Flight info
| Callsign | RYR8230 |
|---|---|
| Flight time | 0h 43m |
| Altitude | 19000 |
| Route | BAVER M603 GERVU |
| Aircraft | A320/M-SDE3FGHIRWY/LB1 |
Departure
| Time | 2026-05-07 12:46 |
|---|---|
| Airport | Palma de Mallorca Airport (LEPA) |
Arrival
| Time | 2026-05-07 13:29 |
|---|---|
| Airport | Alicante-Elche Miguel Hernández Airport (LEAL) |
| Time | Latitude | Longitude | Altitude | Speed | Heading |
|---|---|---|---|---|---|
| 2026-05-07 12:20 | 39.54800 | 2.73599 | 37 ft | 0 kts | 58° |
| 2026-05-07 12:36 | 39.54790 | 2.73577 | 38 ft | 2 kts | 58° |
| 2026-05-07 12:36 | 39.54776 | 2.73554 | 37 ft | 4 kts | 31° |
| 2026-05-07 12:37 | 39.54753 | 2.73547 | 38 ft | 4 kts | 341° |
| 2026-05-07 12:37 | 39.54730 | 2.73562 | 36 ft | 4 kts | 329° |
| 2026-05-07 12:37 | 39.54719 | 2.73570 | 36 ft | 0 kts | 329° |
| 2026-05-07 12:41 | 39.54728 | 2.73564 | 36 ft | 6 kts | 329° |
| 2026-05-07 12:41 | 39.54769 | 2.73478 | 38 ft | 17 kts | 252° |
| 2026-05-07 12:41 | 39.54721 | 2.73469 | 38 ft | 6 kts | 144° |
| 2026-05-07 12:42 | 39.54693 | 2.73496 | 38 ft | 4 kts | 143° |
| 2026-05-07 12:42 | 39.54669 | 2.73518 | 38 ft | 6 kts | 146° |
| 2026-05-07 12:42 | 39.54576 | 2.73516 | 36 ft | 23 kts | 228° |
| 2026-05-07 12:42 | 39.54498 | 2.73327 | 37 ft | 23 kts | 239° |
| 2026-05-07 12:43 | 39.54413 | 2.73157 | 36 ft | 22 kts | 239° |
| 2026-05-07 12:43 | 39.54338 | 2.72998 | 38 ft | 20 kts | 239° |
| 2026-05-07 12:43 | 39.54265 | 2.72852 | 38 ft | 17 kts | 213° |
| 2026-05-07 12:43 | 39.54186 | 2.72910 | 37 ft | 12 kts | 142° |
| 2026-05-07 12:44 | 39.54172 | 2.72926 | 38 ft | 0 kts | 135° |
| 2026-05-07 12:44 | 39.54157 | 2.72966 | 38 ft | 12 kts | 108° |
| 2026-05-07 12:45 | 39.54149 | 2.73129 | 38 ft | 22 kts | 90° |
| 2026-05-07 12:45 | 39.54194 | 2.73316 | 38 ft | 24 kts | 58° |
| 2026-05-07 12:45 | 39.54329 | 2.73603 | 38 ft | 66 kts | 58° |
| 2026-05-07 12:45 | 39.54685 | 2.74355 | 39 ft | 128 kts | 58° |
| 2026-05-07 12:46 | 39.55231 | 2.75506 | 175 ft | 164 kts | 59° |
| 2026-05-07 12:46 | 39.55838 | 2.76794 | 875 ft | 167 kts | 59° |
| 2026-05-07 12:46 | 39.56434 | 2.78079 | 1645 ft | 169 kts | 60° |
| 2026-05-07 12:46 | 39.57096 | 2.79445 | 2079 ft | 191 kts | 60° |
| 2026-05-07 12:47 | 39.57807 | 2.80980 | 2617 ft | 203 kts | 62° |
| 2026-05-07 12:47 | 39.58519 | 2.82583 | 3428 ft | 207 kts | 62° |
| 2026-05-07 12:47 | 39.59236 | 2.84201 | 4277 ft | 210 kts | 61° |
| 2026-05-07 12:47 | 39.60015 | 2.85811 | 4962 ft | 224 kts | 51° |
| 2026-05-07 12:48 | 39.61391 | 2.86953 | 5369 ft | 254 kts | 15° |
| 2026-05-07 12:48 | 39.63204 | 2.86809 | 5973 ft | 275 kts | 340° |
| 2026-05-07 12:48 | 39.64730 | 2.85272 | 6826 ft | 284 kts | 308° |
| 2026-05-07 12:48 | 39.65763 | 2.83070 | 7747 ft | 288 kts | 296° |
| 2026-05-07 12:49 | 39.66559 | 2.80678 | 8632 ft | 291 kts | 291° |
| 2026-05-07 12:49 | 39.67283 | 2.78210 | 9548 ft | 295 kts | 289° |
| 2026-05-07 12:49 | 39.68025 | 2.75681 | 10238 ft | 307 kts | 289° |
| 2026-05-07 12:49 | 39.68833 | 2.73042 | 10569 ft | 331 kts | 291° |
| 2026-05-07 12:50 | 39.69754 | 2.70196 | 10897 ft | 353 kts | 291° |
| 2026-05-07 12:50 | 39.70756 | 2.67229 | 11550 ft | 361 kts | 293° |
| 2026-05-07 12:50 | 39.71793 | 2.64245 | 12369 ft | 364 kts | 292° |
| 2026-05-07 12:50 | 39.72848 | 2.61239 | 13157 ft | 368 kts | 292° |
| 2026-05-07 12:51 | 39.73918 | 2.58196 | 13895 ft | 372 kts | 292° |
| 2026-05-07 12:51 | 39.74992 | 2.55126 | 14554 ft | 375 kts | 292° |
| 2026-05-07 12:51 | 39.76072 | 2.52024 | 15224 ft | 378 kts | 292° |
| 2026-05-07 12:51 | 39.77154 | 2.48900 | 15894 ft | 381 kts | 291° |
| 2026-05-07 12:52 | 39.78231 | 2.45790 | 16558 ft | 384 kts | 291° |
| 2026-05-07 12:52 | 39.79326 | 2.42609 | 17219 ft | 387 kts | 291° |
| 2026-05-07 12:52 | 39.80235 | 2.39318 | 17859 ft | 387 kts | 281° |
| 2026-05-07 12:52 | 39.80655 | 2.35864 | 18465 ft | 387 kts | 270° |
| 2026-05-07 12:53 | 39.80580 | 2.32383 | 18833 ft | 385 kts | 260° |
| 2026-05-07 12:53 | 39.80013 | 2.29006 | 18950 ft | 385 kts | 250° |
| 2026-05-07 12:53 | 39.78938 | 2.25758 | 18960 ft | 396 kts | 239° |
| 2026-05-07 12:53 | 39.77424 | 2.22807 | 18958 ft | 399 kts | 232° |
| 2026-05-07 12:54 | 39.75776 | 2.19894 | 18956 ft | 401 kts | 232° |
| 2026-05-07 12:54 | 39.74126 | 2.16968 | 18956 ft | 402 kts | 232° |
| 2026-05-07 12:54 | 39.72475 | 2.14039 | 18953 ft | 402 kts | 232° |
| 2026-05-07 12:54 | 39.70827 | 2.11110 | 18953 ft | 402 kts | 232° |
| 2026-05-07 12:55 | 39.69178 | 2.08180 | 18956 ft | 402 kts | 232° |
| 2026-05-07 12:55 | 39.67530 | 2.05257 | 18956 ft | 401 kts | 232° |
| 2026-05-07 12:55 | 39.65877 | 2.02328 | 18956 ft | 402 kts | 232° |
| 2026-05-07 12:55 | 39.64228 | 1.99407 | 18958 ft | 402 kts | 232° |
| 2026-05-07 12:56 | 39.62600 | 1.96527 | 18956 ft | 402 kts | 232° |
| 2026-05-07 12:56 | 39.60945 | 1.93605 | 18958 ft | 402 kts | 232° |
| 2026-05-07 12:56 | 39.59291 | 1.90684 | 18976 ft | 402 kts | 232° |
| 2026-05-07 12:56 | 39.57631 | 1.87760 | 18971 ft | 403 kts | 232° |
| 2026-05-07 12:57 | 39.55965 | 1.84839 | 18962 ft | 403 kts | 232° |
| 2026-05-07 12:57 | 39.54299 | 1.81917 | 18954 ft | 404 kts | 232° |
| 2026-05-07 12:57 | 39.52630 | 1.78989 | 18951 ft | 404 kts | 232° |
| 2026-05-07 12:57 | 39.50959 | 1.76061 | 18951 ft | 404 kts | 232° |
| 2026-05-07 12:58 | 39.49291 | 1.73138 | 18951 ft | 405 kts | 232° |
| 2026-05-07 12:58 | 39.47615 | 1.70205 | 18953 ft | 405 kts | 232° |
| 2026-05-07 12:58 | 39.45962 | 1.67315 | 18952 ft | 405 kts | 232° |
| 2026-05-07 12:58 | 39.44289 | 1.64393 | 18954 ft | 405 kts | 232° |
| 2026-05-07 12:59 | 39.42609 | 1.61461 | 18956 ft | 405 kts | 232° |
| 2026-05-07 12:59 | 39.40929 | 1.58532 | 18957 ft | 405 kts | 232° |
| 2026-05-07 12:59 | 39.39251 | 1.55607 | 18958 ft | 405 kts | 232° |
| 2026-05-07 12:59 | 39.37572 | 1.52683 | 18969 ft | 405 kts | 232° |
| 2026-05-07 13:00 | 39.35892 | 1.49760 | 18973 ft | 405 kts | 231° |
| 2026-05-07 13:00 | 39.34214 | 1.46837 | 18967 ft | 405 kts | 231° |
| 2026-05-07 13:00 | 39.32539 | 1.43922 | 18969 ft | 404 kts | 232° |
| 2026-05-07 13:00 | 39.30886 | 1.41054 | 18970 ft | 403 kts | 232° |
| 2026-05-07 13:01 | 39.29214 | 1.38159 | 18968 ft | 403 kts | 232° |
| 2026-05-07 13:01 | 39.27539 | 1.35260 | 18966 ft | 403 kts | 232° |
| 2026-05-07 13:01 | 39.25867 | 1.32363 | 18965 ft | 402 kts | 232° |
| 2026-05-07 13:01 | 39.24197 | 1.29469 | 18963 ft | 402 kts | 232° |
| 2026-05-07 13:02 | 39.22525 | 1.26576 | 18961 ft | 402 kts | 232° |
| 2026-05-07 13:02 | 39.20846 | 1.23682 | 18961 ft | 402 kts | 232° |
| 2026-05-07 13:02 | 39.19168 | 1.20801 | 18960 ft | 402 kts | 231° |
| 2026-05-07 13:02 | 39.17515 | 1.17963 | 18960 ft | 402 kts | 232° |
| 2026-05-07 13:03 | 39.15841 | 1.15079 | 18962 ft | 402 kts | 232° |
| 2026-05-07 13:03 | 39.14168 | 1.12197 | 18972 ft | 402 kts | 232° |
| 2026-05-07 13:03 | 39.12493 | 1.09313 | 18970 ft | 401 kts | 231° |
| 2026-05-07 13:03 | 39.10820 | 1.06434 | 18958 ft | 402 kts | 231° |
| 2026-05-07 13:04 | 39.09144 | 1.03558 | 18951 ft | 402 kts | 231° |
| 2026-05-07 13:04 | 39.07464 | 1.00680 | 18946 ft | 402 kts | 231° |
| 2026-05-07 13:04 | 39.05781 | 0.97801 | 18949 ft | 402 kts | 231° |
| 2026-05-07 13:04 | 39.04121 | 0.94967 | 18943 ft | 402 kts | 231° |
| 2026-05-07 13:05 | 39.02435 | 0.92094 | 18945 ft | 403 kts | 231° |
| 2026-05-07 13:05 | 39.00749 | 0.89217 | 18953 ft | 403 kts | 231° |
| 2026-05-07 13:05 | 38.99067 | 0.86349 | 18950 ft | 403 kts | 231° |
| 2026-05-07 13:05 | 38.97382 | 0.83476 | 18954 ft | 403 kts | 231° |
| 2026-05-07 13:06 | 38.95696 | 0.80605 | 18946 ft | 402 kts | 231° |
| 2026-05-07 13:06 | 38.94009 | 0.77733 | 18948 ft | 402 kts | 231° |
| 2026-05-07 13:06 | 38.92324 | 0.74866 | 18958 ft | 402 kts | 231° |
| 2026-05-07 13:06 | 38.90636 | 0.72000 | 18956 ft | 402 kts | 231° |
| 2026-05-07 13:07 | 38.88978 | 0.69166 | 18956 ft | 402 kts | 233° |
| 2026-05-07 13:07 | 38.87572 | 0.66081 | 18950 ft | 399 kts | 244° |
| 2026-05-07 13:07 | 38.86523 | 0.62799 | 18945 ft | 397 kts | 247° |
| 2026-05-07 13:07 | 38.85502 | 0.59509 | 18946 ft | 396 kts | 247° |
| 2026-05-07 13:08 | 38.84478 | 0.56236 | 18943 ft | 396 kts | 247° |
| 2026-05-07 13:08 | 38.83447 | 0.52962 | 18947 ft | 396 kts | 247° |
| 2026-05-07 13:08 | 38.82417 | 0.49690 | 18941 ft | 396 kts | 247° |
| 2026-05-07 13:08 | 38.81566 | 0.46333 | 18944 ft | 397 kts | 253° |
| 2026-05-07 13:09 | 38.80855 | 0.42920 | 18950 ft | 397 kts | 253° |
| 2026-05-07 13:09 | 38.80142 | 0.39507 | 18951 ft | 397 kts | 253° |
| 2026-05-07 13:09 | 38.79433 | 0.36132 | 18950 ft | 397 kts | 253° |
| 2026-05-07 13:09 | 38.78712 | 0.32721 | 18932 ft | 398 kts | 253° |
| 2026-05-07 13:10 | 38.77986 | 0.29297 | 18932 ft | 398 kts | 253° |
| 2026-05-07 13:10 | 38.77261 | 0.25866 | 18931 ft | 399 kts | 253° |
| 2026-05-07 13:10 | 38.76537 | 0.22430 | 18931 ft | 399 kts | 253° |
| 2026-05-07 13:10 | 38.75813 | 0.18995 | 18934 ft | 400 kts | 253° |
| 2026-05-07 13:11 | 38.75088 | 0.15563 | 18931 ft | 400 kts | 253° |
| 2026-05-07 13:11 | 38.74356 | 0.12119 | 18937 ft | 400 kts | 253° |
| 2026-05-07 13:11 | 38.73632 | 0.08728 | 18937 ft | 400 kts | 253° |
| 2026-05-07 13:11 | 38.72897 | 0.05294 | 18937 ft | 400 kts | 253° |
| 2026-05-07 13:12 | 38.72162 | 0.01853 | 18948 ft | 400 kts | 253° |
| 2026-05-07 13:12 | 38.71427 | -0.01584 | 18954 ft | 401 kts | 253° |
| 2026-05-07 13:12 | 38.70690 | -0.05028 | 18937 ft | 402 kts | 253° |
| 2026-05-07 13:12 | 38.69952 | -0.08480 | 18930 ft | 402 kts | 253° |
| 2026-05-07 13:13 | 38.69212 | -0.11930 | 18920 ft | 402 kts | 253° |
| 2026-05-07 13:13 | 38.68480 | -0.15331 | 18693 ft | 392 kts | 253° |
| 2026-05-07 13:13 | 38.67758 | -0.18675 | 18449 ft | 389 kts | 253° |
| 2026-05-07 13:13 | 38.67048 | -0.21959 | 18230 ft | 387 kts | 253° |
| 2026-05-07 13:14 | 38.66328 | -0.25279 | 17966 ft | 386 kts | 253° |
| 2026-05-07 13:14 | 38.65616 | -0.28576 | 17626 ft | 381 kts | 253° |
| 2026-05-07 13:14 | 38.64919 | -0.31815 | 17133 ft | 375 kts | 253° |
| 2026-05-07 13:14 | 38.64230 | -0.35012 | 16633 ft | 370 kts | 253° |
| 2026-05-07 13:15 | 38.63545 | -0.38170 | 16133 ft | 367 kts | 252° |
| 2026-05-07 13:15 | 38.62862 | -0.41298 | 15604 ft | 364 kts | 252° |
| 2026-05-07 13:15 | 38.62179 | -0.44420 | 15086 ft | 365 kts | 252° |
| 2026-05-07 13:15 | 38.61503 | -0.47501 | 14546 ft | 365 kts | 252° |
| 2026-05-07 13:16 | 38.60818 | -0.50617 | 14002 ft | 364 kts | 253° |
| 2026-05-07 13:16 | 38.60136 | -0.53725 | 13391 ft | 363 kts | 252° |
| 2026-05-07 13:16 | 38.59455 | -0.56822 | 12823 ft | 360 kts | 251° |
| 2026-05-07 13:16 | 38.58782 | -0.59892 | 12251 ft | 358 kts | 253° |
| 2026-05-07 13:17 | 38.58115 | -0.62929 | 11882 ft | 350 kts | 252° |
| 2026-05-07 13:17 | 38.57471 | -0.65863 | 11751 ft | 336 kts | 252° |
| 2026-05-07 13:17 | 38.56853 | -0.68674 | 11629 ft | 323 kts | 253° |
| 2026-05-07 13:17 | 38.56262 | -0.71351 | 11500 ft | 311 kts | 253° |
| 2026-05-07 13:18 | 38.55685 | -0.73961 | 11375 ft | 301 kts | 252° |
| 2026-05-07 13:18 | 38.55125 | -0.76492 | 11249 ft | 291 kts | 251° |
| 2026-05-07 13:18 | 38.54585 | -0.78932 | 11129 ft | 281 kts | 252° |
| 2026-05-07 13:18 | 38.53953 | -0.81232 | 10989 ft | 269 kts | 240° |
| 2026-05-07 13:19 | 38.53004 | -0.83229 | 10801 ft | 260 kts | 230° |
| 2026-05-07 13:19 | 38.51847 | -0.85002 | 10444 ft | 260 kts | 226° |
| 2026-05-07 13:19 | 38.50606 | -0.86689 | 10143 ft | 258 kts | 223° |
| 2026-05-07 13:19 | 38.49318 | -0.88268 | 9860 ft | 256 kts | 219° |
| 2026-05-07 13:20 | 38.47977 | -0.89754 | 9489 ft | 255 kts | 218° |
| 2026-05-07 13:20 | 38.46578 | -0.91147 | 9109 ft | 253 kts | 213° |
| 2026-05-07 13:20 | 38.45163 | -0.92411 | 8522 ft | 252 kts | 210° |
| 2026-05-07 13:20 | 38.43678 | -0.93588 | 7924 ft | 251 kts | 209° |
| 2026-05-07 13:21 | 38.42148 | -0.94662 | 7336 ft | 250 kts | 205° |
| 2026-05-07 13:21 | 38.40587 | -0.95613 | 6753 ft | 248 kts | 202° |
| 2026-05-07 13:21 | 38.38995 | -0.96455 | 6181 ft | 247 kts | 199° |
| 2026-05-07 13:21 | 38.37394 | -0.97206 | 5797 ft | 240 kts | 194° |
| 2026-05-07 13:22 | 38.35763 | -0.97280 | 5696 ft | 235 kts | 161° |
| 2026-05-07 13:22 | 38.34377 | -0.96267 | 5590 ft | 230 kts | 130° |
| 2026-05-07 13:22 | 38.33551 | -0.94442 | 5455 ft | 251 kts | 104° |
| 2026-05-07 13:22 | 38.33217 | -0.92302 | 5309 ft | 245 kts | 98° |
| 2026-05-07 13:23 | 38.32946 | -0.90173 | 5165 ft | 252 kts | 98° |
| 2026-05-07 13:23 | 38.32649 | -0.87946 | 4865 ft | 253 kts | 99° |
| 2026-05-07 13:23 | 38.32351 | -0.85768 | 4530 ft | 244 kts | 99° |
| 2026-05-07 13:23 | 38.32068 | -0.83705 | 4210 ft | 229 kts | 99° |
| 2026-05-07 13:24 | 38.31802 | -0.81768 | 3913 ft | 215 kts | 99° |
| 2026-05-07 13:24 | 38.31549 | -0.79922 | 3636 ft | 210 kts | 100° |
| 2026-05-07 13:24 | 38.31301 | -0.78111 | 3369 ft | 207 kts | 100° |
| 2026-05-07 13:24 | 38.31054 | -0.76317 | 3084 ft | 203 kts | 100° |
| 2026-05-07 13:25 | 38.30812 | -0.74559 | 2813 ft | 201 kts | 98° |
| 2026-05-07 13:25 | 38.30577 | -0.72848 | 2547 ft | 197 kts | 98° |
| 2026-05-07 13:25 | 38.30345 | -0.71174 | 2314 ft | 185 kts | 97° |
| 2026-05-07 13:25 | 38.30131 | -0.69622 | 2066 ft | 172 kts | 98° |
| 2026-05-07 13:26 | 38.29932 | -0.68187 | 1836 ft | 157 kts | 97° |
| 2026-05-07 13:26 | 38.29751 | -0.66880 | 1638 ft | 142 kts | 97° |
| 2026-05-07 13:26 | 38.29586 | -0.65688 | 1465 ft | 130 kts | 97° |
| 2026-05-07 13:26 | 38.29431 | -0.64563 | 1278 ft | 128 kts | 98° |
| 2026-05-07 13:27 | 38.29275 | -0.63434 | 1106 ft | 129 kts | 98° |
| 2026-05-07 13:27 | 38.29123 | -0.62339 | 996 ft | 126 kts | 100° |
| 2026-05-07 13:27 | 38.28974 | -0.61228 | 779 ft | 126 kts | 98° |
| 2026-05-07 13:27 | 38.28819 | -0.60145 | 635 ft | 124 kts | 101° |
| 2026-05-07 13:28 | 38.28665 | -0.59065 | 413 ft | 126 kts | 95° |
| 2026-05-07 13:28 | 38.28515 | -0.57972 | 267 ft | 124 kts | 99° |
| 2026-05-07 13:28 | 38.28368 | -0.56897 | 136 ft | 120 kts | 98° |
| 2026-05-07 13:28 | 38.28236 | -0.55953 | 108 ft | 97 kts | 101° |
| 2026-05-07 13:29 | 38.28136 | -0.55232 | 86 ft | 60 kts | 100° |
| 2026-05-07 13:29 | 38.28153 | -0.54888 | 75 ft | 24 kts | 71° |
| 2026-05-07 13:29 | 38.28228 | -0.54722 | 66 ft | 16 kts | 346° |
| 2026-05-07 13:29 | 38.28256 | -0.54833 | 66 ft | 11 kts | 280° |
| 2026-05-07 13:30 | 38.28267 | -0.54912 | 72 ft | 7 kts | 280° |
| 2026-05-07 13:30 | 38.28275 | -0.54967 | 77 ft | 8 kts | 280° |
| 2026-05-07 13:30 | 38.28290 | -0.55074 | 81 ft | 16 kts | 282° |
| 2026-05-07 13:30 | 38.28345 | -0.55204 | 89 ft | 16 kts | 2° |
| 2026-05-07 13:31 | 38.28433 | -0.55186 | 89 ft | 13 kts | 311° |
| 2026-05-07 13:31 | 38.28454 | -0.55292 | 89 ft | 11 kts | 280° |
| 2026-05-07 13:31 | 38.28466 | -0.55376 | 91 ft | 8 kts | 280° |
| 2026-05-07 13:31 | 38.28474 | -0.55431 | 94 ft | 5 kts | 280° |
| 2026-05-07 13:32 | 38.28484 | -0.55462 | 93 ft | 5 kts | 314° |
| 2026-05-07 13:32 | 38.28525 | -0.55457 | 93 ft | 7 kts | 10° |
| 2026-05-07 13:32 | 38.28551 | -0.55451 | 91 ft | 0 kts | 11° |